WEATHER DATA

YESTERDAY
Time Temp. Dewp. Hum. Bar. 1h Prec. 24h Prec.
00:17 1.9 0.9 93 1031.8 0.0000 0.0000
00:27 1.9 0.9 93 1031.8 0.0000 0.0000
00:37 1.9 0.9 93 1031.7 0.0000 0.0000
00:47 1.8 0.6 92 1031.8 0.0000 0.0000
00:57 1.8 0.8 93 1031.7 0.0000 0.0000
01:07 1.8 0.6 92 1031.5 0.0000 0.0000
01:17 1.7 0.5 92 1031.6 0.0000 0.0000
01:28 1.7 0.5 92 1031.7 0.0000 0.0000
01:37 1.7 0.7 93 1031.8 0.0000 0.0000
01:47 1.6 0.6 93 1031.8 0.0000 0.0000
01:57 1.7 0.7 93 1031.7 0.0000 0.0000
02:08 1.6 0.4 92 1031.7 0.0000 0.0000
02:17 1.5 0.5 93 1031.8 0.0000 0.0000
02:27 1.5 0.5 93 1031.8 0.0000 0.0000
02:38 1.5 0.5 93 1031.8 0.0000 0.0000
02:48 1.6 0.6 93 1031.7 0.0000 0.0000
02:58 1.5 0.5 93 1031.6 0.0000 0.0000
03:08 1.5 0.6 94 1031.6 0.0000 0.0000
03:18 1.5 0.6 94 1031.5 0.0000 0.0000
03:28 1.5 0.6 94 1031.4 0.0000 0.0000
03:38 1.5 0.6 94 1031.3 0.0000 0.0000
03:48 1.5 0.6 94 1031.3 0.0000 0.0000
03:58 1.5 0.6 94 1031.1 0.0000 0.0000
04:08 1.6 0.7 94 1031.1 0.0000 0.0000
04:18 1.5 0.6 94 1031 0.0000 0.0000
04:29 1.5 0.6 94 1030.9 0.0000 0.0000
04:38 1.5 0.6 94 1030.8 0.0000 0.0000
04:48 1.5 0.6 94 1030.9 0.0000 0.0000
04:59 1.5 0.6 94 1030.8 0.0000 0.0000
05:09 1.5 0.6 94 1030.9 0.0000 0.0000
05:19 1.5 0.6 94 1030.8 0.0000 0.0000
05:29 1.4 0.5 94 1030.4 0.0000 0.0000
05:39 1.4 0.5 94 1030.1 0.0000 0.0000
05:49 1.4 0.5 94 1030.3 0.0000 0.0000
05:59 1.4 0.5 94 1030.2 0.0000 0.0000
06:09 1.4 0.5 94 1030.5 0.0000 0.0000
06:19 1.4 0.5 94 1030.9 0.1010 0.1000
06:29 1.3 0.4 94 1030.9 0.1010 0.1000
06:39 1.3 0.4 94 1030.8 0.1010 0.1000
06:50 1.3 0.4 94 1030.7 0.1010 0.1000
06:59 1.3 0.4 94 1030.8 0.1010 0.1000
07:09 1.3 0.4 94 1030.7 0.1010 0.1000
07:20 1.2 0.3 94 1030.7 0.0000 0.1000
07:30 1.2 0.3 94 1030.5 0.0000 0.1000
07:40 1.2 0.3 94 1030.3 0.0000 0.1000
07:50 1.1 0.2 94 1030.4 0.0000 0.1000
08:00 1.1 0.2 94 1030.3 0.0000 0.1000
08:10 1.1 0.2 94 1030.2 0.0000 0.1000
08:20 1.1 0.1 93 1030.3 0.0000 0.1000
08:30 1.1 0.1 93 1030.4 0.0000 0.1000
08:40 1.1 0.1 93 1030.5 0.0000 0.1000
08:50 1.1 0.1 93 1030.5 0.0000 0.1000
09:00 1.1 0.1 93 1030.4 0.0000 0.1000
09:11 1 0 93 1030.2 0.0000 0.1000
09:20 1 0 93 1030.3 0.0000 0.1000
09:30 1 0 93 1030.5 0.0000 0.1000
09:41 0.9 -0.1 93 1030.7 0.0000 0.1000
09:51 0.9 -0.1 93 1030.7 0.0000 0.1000
10:00 0.9 -0.1 93 1030.8 0.0000 0.1000
10:11 0.9 -0.1 93 1031 0.0000 0.1000
10:21 0.9 -0.1 93 1030.8 0.0000 0.1000
10:31 0.9 -0.1 93 1031 0.0000 0.1000
10:41 1 0 93 1031 0.0000 0.1000
10:51 1 0 93 1030.9 0.0000 0.1000
11:01 1 -0.1 92 1030.9 0.0000 0.1000
11:11 1 -0.1 92 1030.9 0.0000 0.1000
11:21 1 -0.1 92 1031 0.0000 0.1000
11:31 1 -0.1 92 1031 0.0000 0.1000
11:41 1.1 0 92 1031 0.0000 0.1000
11:51 1.1 0.1 93 1031 0.0000 0.1000
12:02 1.2 0.2 93 1031.2 0.0000 0.1000
12:12 1.2 0.2 93 1031 0.0000 0.1000
12:21 1.2 0.2 93 1030.9 0.0000 0.1000
12:32 1.2 0.2 93 1031 0.0000 0.1000
12:42 1.3 0.3 93 1031.2 0.0000 0.1000
12:52 1.3 0.3 93 1031.1 0.0000 0.1000
13:01 1.3 0.3 93 1030.9 0.0000 0.1000
13:12 1.4 0.4 93 1030.8 0.0000 0.1000
13:22 1.4 0.4 93 1030.8 0.0000 0.1000
13:32 1.5 0.5 93 1030.8 0.0000 0.1000
13:42 1.5 0.5 93 1030.7 0.0000 0.1000
13:52 1.6 0.4 92 1030.2 0.0000 0.1000
14:02 1.6 0.4 92 1029.9 0.0000 0.1000
14:12 1.6 0.4 92 1029.7 0.0000 0.1000
14:23 1.7 0.5 92 1029.5 0.0000 0.1000
14:33 1.7 0.5 92 1029.5 0.0000 0.1000
14:42 1.7 0.5 92 1029.4 0.0000 0.1000
14:53 1.7 0.5 92 1029.4 0.0000 0.1000
15:03 1.7 0.5 92 1029.2 0.0000 0.1000
15:13 1.7 0.5 92 1029.3 0.0000 0.1000
15:23 1.7 0.5 92 1029.3 0.0000 0.1000
15:33 1.7 0.5 92 1029.4 0.0000 0.1000
16:28 1.6 0.4 92 1029.4 0.0000 0.1000
16:38 1.6 0.4 92 1029.6 0.0000 0.1000
16:49 1.6 0.4 92 1029.6 0.0000 0.1000
16:58 1.7 0.5 92 1029.7 0.0000 0.1000
17:08 1.7 0.5 92 1029.6 0.0000 0.1000
17:19 1.7 0.5 92 1029.5 0.0000 0.1000
17:29 1.7 0.5 92 1029.3 0.0000 0.1000
17:38 1.7 0.7 93 1029.4 0.0000 0.1000
17:49 1.8 0.8 93 1029.4 0.0000 0.1000
17:59 1.8 0.8 93 1029.4 0.0000 0.1000
18:09 1.8 0.8 93 1029.5 0.0000 0.1000
18:18 1.8 0.8 93 1029.3 0.0000 0.1000
18:29 1.8 0.8 93 1029.3 0.0000 0.1000
18:39 1.8 0.8 93 1029.2 0.0000 0.1000
18:49 1.8 0.8 93 1029.3 0.0000 0.1000
18:59 1.9 0.9 93 1029.4 0.0000 0.1000
19:09 1.9 0.9 93 1029.3 0.0000 0.1000
19:19 1.9 0.9 93 1029.2 0.0000 0.1000
19:29 1.9 0.9 93 1029.1 0.0000 0.1000
19:40 1.9 0.9 93 1029.1 0.0000 0.1000
19:49 1.9 0.9 93 1029.1 0.0000 0.1000
19:59 1.9 0.9 93 1028.8 0.0000 0.1000
20:10 1.9 0.9 93 1028.7 0.0000 0.1000
20:20 1.9 0.9 93 1028.8 0.0000 0.1000
20:30 1.9 0.9 93 1028.7 0.0000 0.1000
20:39 1.9 0.9 93 1028.7 0.0000 0.1000
20:50 1.9 0.9 93 1028.7 0.0000 0.1000
21:00 1.9 0.9 93 1028.6 0.0000 0.1000
21:10 1.9 0.9 93 1028.5 0.0000 0.1000
21:20 1.9 0.9 93 1028.5 0.0000 0.1000
21:30 1.9 0.9 93 1028.6 0.0000 0.1000
21:40 1.9 0.9 93 1028.3 0.0000 0.1000
21:50 1.9 0.9 93 1028.3 0.0000 0.1000
22:01 2 1 93 1028.2 0.0000 0.1000
22:11 1.9 0.9 93 1028.3 0.0000 0.1000
22:20 1.9 0.9 93 1028.4 0.0000 0.1000
22:31 1.9 0.9 93 1028.3 0.0000 0.1000
22:41 1.9 0.9 93 1028.3 0.0000 0.1000
22:51 1.9 0.9 93 1028.2 0.0000 0.1000
23:00 1.9 0.9 93 1028.1 0.0000 0.1000
23:11 1.9 0.9 93 1028 0.0000 0.1000
23:21 1.9 0.9 93 1028 0.0000 0.1000
23:31 1.9 0.9 93 1027.9 0.0000 0.1000
23:41 1.9 0.9 93 1027.8 0.0000 0.1000
23:51 1.9 0.9 93 1027.7 0.0000 0.1000

DAY STATISTIC

2022-01-26
TEMPERATURE
AVERAGE
1.5
HIGH
2.0
22:01
LOW
0.9
09:41
PRESSURE
AVERAGE
1030.2
HIGH
1031.8
00:17
LOW
1027.7
23:51
DEWPOINT
AVERAGE
0.5
HIGH
1.0
22:01
LOW
-0.1
09:41
HUMIDITY
AVERAGE
93
HIGH
94
03:08
LOW
92
00:47
PRECIPITATION
RAIN HOUR
0.1
RAIN DAY
0.1
TEMPERATURE (°C)
LOW
0.9
HIGH
2.0
AVERAGE
1.5
PRESSURE (hpa)
LOW
1027.7
HIGH
1031.8
AVERAGE
1030.2
DEVICE